createdAt,value
2023-01-19T00:04:29.993Z,1.07
2023-01-19T00:09:38.731Z,1.10
2023-01-19T00:14:46.807Z,1.15
2023-01-19T00:19:54.806Z,1.18
2023-01-19T00:25:02.972Z,1.21
2023-01-19T00:30:13.048Z,1.23
2023-01-19T00:35:21.638Z,1.23
2023-01-19T00:40:30.210Z,1.23
2023-01-19T00:45:38.706Z,1.23
2023-01-19T00:50:47.016Z,1.22
2023-01-19T00:55:55.614Z,1.22
2023-01-19T01:01:05.159Z,1.23
2023-01-19T01:06:13.347Z,1.25
2023-01-19T01:11:21.307Z,1.26
2023-01-19T01:16:29.672Z,1.28
2023-01-19T01:21:37.863Z,1.30
2023-01-19T01:26:46.446Z,1.31
2023-01-19T01:31:54.498Z,1.31
2023-01-19T01:37:03.379Z,1.31
2023-01-19T01:42:20.344Z,1.34
2023-01-19T01:47:38.650Z,1.34
2023-01-19T01:53:06.923Z,1.34
2023-01-19T01:58:16.901Z,1.35
2023-01-19T02:03:27.383Z,1.35
2023-01-19T02:08:57.843Z,1.36
2023-01-19T02:14:07.594Z,1.37
2023-01-19T02:19:19.838Z,1.37
2023-01-19T02:24:27.901Z,1.37
2023-01-19T02:29:36.964Z,1.38
2023-01-19T02:34:45.532Z,1.37
2023-01-19T02:39:57.872Z,1.38
2023-01-19T02:45:07.454Z,1.37
2023-01-19T02:50:46.742Z,1.37
2023-01-19T02:56:02.272Z,1.36
2023-01-19T03:01:17.835Z,1.36
2023-01-19T03:06:43.582Z,1.37
2023-01-19T03:12:04.139Z,1.39
2023-01-19T03:17:16.881Z,1.39
2023-01-19T03:22:28.300Z,1.39
2023-01-19T03:27:42.700Z,1.37
2023-01-19T03:32:54.776Z,1.36
2023-01-19T03:38:07.327Z,1.35
2023-01-19T03:43:17.988Z,1.34
2023-01-19T03:48:26.432Z,1.33
2023-01-19T03:53:35.028Z,1.24
2023-01-19T03:58:43.557Z,1.33
2023-01-19T04:03:52.416Z,1.34
2023-01-19T04:09:00.836Z,1.35
2023-01-19T04:14:09.227Z,1.36
2023-01-19T04:19:17.784Z,1.36
2023-01-19T04:24:26.392Z,1.37
2023-01-19T04:29:34.591Z,1.38
2023-01-19T04:34:42.897Z,1.38
2023-01-19T04:39:51.621Z,1.39
2023-01-19T04:45:00.038Z,1.39
2023-01-19T04:50:13.971Z,1.39
2023-01-19T04:55:22.218Z,1.39
2023-01-19T05:00:30.455Z,1.39
2023-01-19T05:05:38.783Z,1.38
2023-01-19T05:10:47.250Z,1.36
2023-01-19T05:15:55.688Z,1.36
2023-01-19T05:21:05.274Z,1.36
2023-01-19T05:26:13.887Z,1.35
2023-01-19T05:31:22.290Z,1.34
2023-01-19T05:36:31.904Z,1.35
2023-01-19T05:41:40.287Z,1.35
2023-01-19T05:46:49.051Z,1.35
2023-01-19T05:51:57.951Z,1.35
2023-01-19T05:57:06.281Z,1.33
2023-01-19T06:02:15.435Z,1.31
2023-01-19T06:07:24.497Z,1.30
2023-01-19T06:12:34.150Z,1.30
2023-01-19T06:17:42.973Z,1.29
2023-01-19T06:22:51.757Z,1.28
2023-01-19T06:28:00.171Z,1.28
2023-01-19T06:33:08.638Z,1.29
2023-01-19T06:38:18.960Z,1.31
2023-01-19T06:43:27.469Z,1.32
2023-01-19T06:48:36.058Z,1.33
2023-01-19T06:53:44.443Z,1.35
2023-01-19T06:58:53.512Z,1.37
2023-01-19T07:04:01.754Z,1.39
2023-01-19T07:09:12.470Z,1.40
2023-01-19T07:14:21.308Z,1.42
2023-01-19T07:19:29.681Z,1.42
2023-01-19T07:24:38.434Z,1.43
2023-01-19T07:29:46.895Z,1.44
2023-01-19T07:34:55.377Z,1.44
2023-01-19T07:40:03.964Z,1.44
2023-01-19T07:45:14.636Z,1.44
2023-01-19T07:50:26.192Z,1.42
2023-01-19T07:55:35.854Z,1.43
2023-01-19T08:00:45.219Z,1.43
2023-01-19T08:05:57.387Z,1.43
2023-01-19T08:11:05.712Z,1.42
2023-01-19T08:16:13.976Z,1.41
2023-01-19T08:21:22.739Z,1.40
2023-01-19T08:26:33.931Z,1.39
2023-01-19T08:31:42.557Z,1.39
2023-01-19T08:36:50.809Z,1.38
2023-01-19T08:42:01.108Z,1.39
2023-01-19T08:47:09.466Z,1.39
2023-01-19T08:52:18.280Z,1.40
2023-01-19T08:57:26.482Z,1.41
2023-01-19T09:02:35.315Z,1.42
2023-01-19T09:07:45.080Z,1.43
2023-01-19T09:12:53.431Z,1.45
2023-01-19T09:18:02.832Z,1.46
2023-01-19T09:23:11.132Z,1.48
2023-01-19T09:28:20.335Z,1.49
2023-01-19T09:33:30.025Z,1.51
2023-01-19T09:38:38.763Z,1.53
2023-01-19T09:43:51.634Z,1.55
2023-01-19T09:49:05.285Z,1.57
2023-01-19T09:54:17.596Z,1.58
2023-01-19T09:59:27.808Z,1.59
2023-01-19T10:04:39.963Z,1.60
2023-01-19T10:10:04.315Z,1.61
2023-01-19T10:15:23.492Z,1.62
2023-01-19T10:20:35.089Z,1.64
2023-01-19T10:25:44.296Z,1.66
2023-01-19T10:30:55.355Z,1.68
2023-01-19T10:36:08.667Z,1.70
2023-01-19T10:41:24.627Z,1.71
2023-01-19T10:46:39.072Z,1.72
2023-01-19T10:51:51.507Z,1.72
2023-01-19T10:57:03.318Z,1.70
2023-01-19T11:02:24.218Z,1.69
2023-01-19T11:07:35.010Z,1.68
2023-01-19T11:12:47.469Z,1.68
2023-01-19T11:17:54.624Z,1.67
2023-01-19T11:23:26.816Z,1.67
2023-01-19T11:28:38.366Z,1.67
2023-01-19T11:33:52.734Z,1.67
2023-01-19T11:39:04.673Z,1.69
2023-01-19T11:44:21.359Z,1.69
2023-01-19T11:49:35.490Z,1.69
2023-01-19T11:54:58.561Z,1.70
2023-01-19T12:00:22.273Z,1.71
2023-01-19T12:05:36.101Z,1.72
2023-01-19T12:10:46.867Z,1.73
2023-01-19T12:15:59.937Z,1.74
2023-01-19T12:21:09.331Z,1.74
2023-01-19T12:26:35.938Z,1.74
2023-01-19T12:31:44.566Z,1.73
2023-01-19T12:36:54.139Z,1.73
2023-01-19T12:42:17.811Z,1.71
2023-01-19T12:47:27.640Z,1.70
2023-01-19T12:52:41.846Z,1.69
2023-01-19T12:58:06.237Z,1.68
2023-01-19T13:03:59.549Z,1.69
2023-01-19T13:09:31.942Z,1.69
2023-01-19T13:14:39.093Z,1.68
2023-01-19T13:19:55.554Z,1.67
2023-01-19T13:25:15.302Z,1.65
2023-01-19T13:30:28.731Z,1.64
2023-01-19T13:35:37.280Z,1.63
2023-01-19T13:40:45.645Z,1.63
2023-01-19T13:45:55.699Z,1.64
2023-01-19T13:51:06.802Z,1.63
2023-01-19T13:56:25.210Z,1.63
2023-01-19T14:01:33.918Z,1.57
2023-01-19T14:06:49.700Z,1.61
2023-01-19T14:12:13.576Z,1.59
2023-01-19T14:17:32.801Z,1.59
2023-01-19T14:22:46.560Z,1.58
2023-01-19T14:28:16.120Z,1.57
2023-01-19T14:33:42.671Z,1.57
2023-01-19T14:38:53.580Z,1.57
2023-01-19T14:44:03.587Z,1.59
2023-01-19T14:49:22.374Z,1.59
2023-01-19T14:54:36.591Z,1.61
2023-01-19T14:59:50.497Z,1.63
2023-01-19T15:04:59.065Z,1.63
2023-01-19T15:10:13.089Z,1.64
2023-01-19T15:15:26.544Z,1.64
2023-01-19T15:20:35.517Z,1.64
2023-01-19T15:25:43.920Z,1.65
2023-01-19T15:30:54.245Z,1.66
2023-01-19T15:36:02.648Z,1.66
2023-01-19T15:41:15.578Z,1.68
2023-01-19T15:46:25.872Z,1.67
2023-01-19T15:51:34.996Z,1.67
2023-01-19T15:56:44.301Z,1.67
2023-01-19T16:01:53.700Z,1.65
2023-01-19T16:07:02.557Z,1.65
2023-01-19T16:12:11.639Z,1.63
2023-01-19T16:17:20.532Z,1.65
2023-01-19T16:22:29.430Z,1.64
2023-01-19T16:27:37.797Z,1.66
2023-01-19T16:32:46.164Z,1.66
2023-01-19T16:37:55.941Z,1.66
2023-01-19T16:43:04.533Z,1.66
2023-01-19T16:48:12.831Z,1.65
2023-01-19T16:53:21.115Z,1.65
2023-01-19T16:58:29.564Z,1.64
2023-01-19T17:03:38.788Z,1.63
2023-01-19T17:08:47.734Z,1.61
2023-01-19T17:13:58.088Z,1.60
2023-01-19T17:19:08.265Z,1.59
2023-01-19T17:24:17.360Z,1.56
2023-01-19T17:29:27.916Z,1.55
2023-01-19T17:34:36.423Z,1.54
2023-01-19T17:39:45.031Z,1.51
2023-01-19T17:44:53.206Z,1.50
2023-01-19T17:50:02.037Z,1.48
2023-01-19T17:55:11.712Z,1.47
2023-01-19T18:00:22.221Z,1.46
2023-01-19T18:05:30.661Z,1.44
2023-01-19T18:10:39.090Z,1.42
2023-01-19T18:15:47.883Z,1.41
2023-01-19T18:20:59.378Z,1.40
2023-01-19T18:26:09.114Z,1.39
2023-01-19T18:31:20.111Z,1.39
2023-01-19T18:36:28.769Z,1.39
2023-01-19T18:41:42.224Z,1.40
2023-01-19T18:46:50.700Z,1.37
2023-01-19T18:51:59.557Z,1.38
2023-01-19T18:57:07.722Z,1.38
2023-01-19T19:02:16.974Z,1.38
2023-01-19T19:07:25.622Z,1.36
2023-01-19T19:12:34.212Z,1.37
2023-01-19T19:17:42.789Z,1.38
2023-01-19T19:22:52.221Z,1.30
2023-01-19T19:28:00.958Z,1.40
2023-01-19T19:33:09.514Z,1.42
2023-01-19T19:38:18.128Z,1.43
2023-01-19T19:43:26.745Z,1.44
2023-01-19T19:48:38.882Z,1.46
2023-01-19T19:53:50.822Z,1.47
2023-01-19T19:58:59.445Z,1.48
2023-01-19T20:04:12.249Z,1.47
2023-01-19T20:09:20.615Z,1.46
2023-01-19T20:14:29.622Z,1.46
2023-01-19T20:19:38.153Z,1.45
2023-01-19T20:24:46.439Z,1.45
2023-01-19T20:29:58.517Z,1.44
2023-01-19T20:35:08.194Z,1.44
2023-01-19T20:40:17.122Z,1.45
2023-01-19T20:45:26.654Z,1.46
2023-01-19T20:50:35.088Z,1.46
2023-01-19T20:55:43.595Z,1.46
2023-01-19T21:00:52.660Z,1.47
2023-01-19T21:06:00.932Z,1.47
2023-01-19T21:11:10.050Z,1.47
2023-01-19T21:16:19.152Z,1.46
2023-01-19T21:21:31.415Z,1.45
2023-01-19T21:26:42.082Z,1.45
2023-01-19T21:31:50.299Z,1.44
2023-01-19T21:36:58.809Z,1.43
2023-01-19T21:42:07.106Z,1.43
2023-01-19T21:47:15.443Z,1.43
2023-01-19T21:52:23.646Z,1.42
2023-01-19T21:57:31.973Z,1.40
2023-01-19T22:02:41.139Z,1.40
2023-01-19T22:07:50.842Z,1.39
2023-01-19T22:12:59.023Z,1.38
2023-01-19T22:18:07.578Z,1.36
2023-01-19T22:23:16.351Z,1.35
2023-01-19T22:28:24.900Z,1.35
2023-01-19T22:33:34.048Z,1.35
2023-01-19T22:38:43.118Z,1.35
2023-01-19T22:43:52.765Z,1.34
2023-01-19T22:49:01.322Z,1.34
2023-01-19T22:54:10.265Z,1.33
2023-01-19T22:59:18.787Z,1.32
2023-01-19T23:04:27.121Z,1.31
2023-01-19T23:09:35.992Z,1.30
2023-01-19T23:14:44.403Z,1.29
2023-01-19T23:19:53.098Z,1.28
2023-01-19T23:25:01.743Z,1.28
2023-01-19T23:30:13.107Z,1.27
2023-01-19T23:35:21.962Z,1.27
2023-01-19T23:40:30.303Z,1.27
2023-01-19T23:45:39.277Z,1.25
2023-01-19T23:50:47.632Z,1.23
2023-01-19T23:55:55.770Z,1.22
